Norwood Park, Illinois
Current Conditions -  °F | °C
As of 7:51 AM on Tuesday 27 Jan 2015 (Local Time) from KORD Reporting Station
Overcast Overcast  
Wind Chill: 19°   Ceiling: 1500
Heat Index: 28°   Visibility: 8mi
Dew Point: 24°   Wind: 9mph
Humidity: 85%   Direction: 50°NE
Pressure: 30.07"   Gusts: NA
Location:  41.995°N, 87.8116°W
Report Text: KORD 271351Z 05008KT 8SM OVC015 M02/M04 A3007 RMK AO2 FZDZE03 SLP192 P0000 I1000 T10221044
Loading
Personal Weather Stations






























Interactive Weather Map New forecast layout! Learn more

10-Day Weather Forecast

Advertisements
Track Severe Weather on mobile